Malmstrom A F B, Montana
Current Conditions -  °F | °C
As of 9:56 PM on Thursday 30 Oct 2014 (Local Time) from KGFA Reporting Station
Few Clouds Few Clouds  
Wind Chill: 48°   Ceiling: Unl
Heat Index: 48°   Visibility: 10mi
Dew Point: 33°   Wind: 0mph
Humidity: 56%   Direction: NA
Pressure: 30.07"   Gusts: NA
Location:  47.5102°N, 111.1959°W
Report Text: KGFA 310356Z AUTO 00000KT 10SM FEW200 FEW230 09/01 A3007 RMK AO2 SLP203 T00900006
Loading
Personal Weather Stations






























Interactive Weather Map New forecast layout! Learn more

10-Day Weather Forecast

Advertisements
Track Severe Weather on mobile